createdAt,value
2018-11-28T00:00:35.201Z,-5.07
2018-11-28T00:01:41.827Z,-5.09
2018-11-28T00:03:06.832Z,-5.12
2018-11-28T00:04:13.040Z,-5.13
2018-11-28T00:05:18.550Z,-5.29
2018-11-28T00:06:24.703Z,-5.39
2018-11-28T00:07:33.949Z,-5.53
2018-11-28T00:08:42.914Z,-5.60
2018-11-28T00:09:49.146Z,-5.67
2018-11-28T00:10:55.448Z,-5.72
2018-11-28T00:13:13.314Z,-5.60
2018-11-28T00:14:21.902Z,-5.55
2018-11-28T00:15:31.084Z,-5.50
2018-11-28T00:16:39.375Z,-5.47
2018-11-28T00:17:46.946Z,-5.46
2018-11-28T00:18:54.945Z,-5.46
2018-11-28T00:20:05.590Z,-5.41
2018-11-28T00:21:15.372Z,-5.43
2018-11-28T00:22:25.453Z,-5.42
2018-11-28T00:23:34.357Z,-5.45
2018-11-28T00:24:43.933Z,-5.45
2018-11-28T00:25:58.818Z,-5.48
2018-11-28T00:27:06.334Z,-5.50
2018-11-28T00:28:14.692Z,-5.51
2018-11-28T00:29:21.944Z,-5.54
2018-11-28T00:30:29.365Z,-5.52
2018-11-28T00:31:35.794Z,-5.49
2018-11-28T00:32:43.245Z,-5.47
2018-11-28T00:33:54.406Z,-5.53
2018-11-28T00:35:06.007Z,-5.50
2018-11-28T00:36:12.948Z,-5.50
2018-11-28T00:37:20.375Z,-5.43
2018-11-28T00:38:30.253Z,-5.19
2018-11-28T00:39:40.226Z,-5.07
2018-11-28T00:40:48.437Z,-5.24
2018-11-28T00:41:55.450Z,-5.46
2018-11-28T00:43:04.122Z,-5.60
2018-11-28T00:44:15.154Z,-5.71
2018-11-28T00:45:23.878Z,-5.83
2018-11-28T00:46:32.567Z,-5.89
2018-11-28T00:47:39.098Z,-6.03
2018-11-28T00:48:47.662Z,-6.07
2018-11-28T00:50:00.945Z,-6.05
2018-11-28T00:51:11.493Z,-5.96
2018-11-28T00:52:19.061Z,-5.81
2018-11-28T00:53:27.975Z,-5.70
2018-11-28T00:54:35.625Z,-5.62
2018-11-28T00:55:48.537Z,-5.67
2018-11-28T00:56:59.119Z,-5.67
2018-11-28T00:58:07.131Z,-5.61
2018-11-28T00:59:16.478Z,-5.56
2018-11-28T01:00:24.323Z,-5.43
2018-11-28T01:01:33.604Z,-5.49
2018-11-28T01:02:44.207Z,-5.53
2018-11-28T01:03:51.357Z,-5.55
2018-11-28T01:05:01.921Z,-5.60
2018-11-28T01:06:08.577Z,-5.59
2018-11-28T01:07:17.514Z,-5.65
2018-11-28T01:08:25.939Z,-5.65
2018-11-28T01:09:37.767Z,-5.62
2018-11-28T01:10:48.502Z,-5.62
2018-11-28T01:11:59.851Z,-5.64
2018-11-28T01:13:09.461Z,-5.71
2018-11-28T01:14:18.014Z,-5.74
2018-11-28T01:15:25.871Z,-5.75
2018-11-28T01:16:33.703Z,-5.68
2018-11-28T01:17:42.386Z,-5.70
2018-11-28T01:18:49.845Z,-5.71
2018-11-28T01:20:00.258Z,-5.69
2018-11-28T01:21:10.148Z,-5.76
2018-11-28T01:22:20.121Z,-5.82
2018-11-28T01:23:30.010Z,-5.91
2018-11-28T01:24:41.975Z,-5.95
2018-11-28T01:25:49.664Z,-5.97
2018-11-28T01:26:57.409Z,-5.94
2018-11-28T01:28:04.332Z,-5.89
2018-11-28T01:29:14.391Z,-5.87
2018-11-28T01:30:21.249Z,-5.82
2018-11-28T01:31:33.314Z,-5.81
2018-11-28T01:32:42.618Z,-5.79
2018-11-28T01:33:51.386Z,-5.79
2018-11-28T01:35:00.004Z,-5.79
2018-11-28T01:36:08.420Z,-5.79
2018-11-28T01:37:16.680Z,-5.78
2018-11-28T01:38:25.990Z,-5.77
2018-11-28T01:39:32.389Z,-5.81
2018-11-28T01:40:41.362Z,-5.81
2018-11-28T01:41:49.625Z,-5.88
2018-11-28T01:42:56.607Z,-5.89
2018-11-28T01:44:03.091Z,-5.88
2018-11-28T01:45:12.102Z,-5.86
2018-11-28T01:46:22.769Z,-5.86
2018-11-28T01:47:31.907Z,-5.83
2018-11-28T01:48:38.251Z,-5.88
2018-11-28T01:49:45.588Z,-5.92
2018-11-28T01:50:55.218Z,-6.00
2018-11-28T01:52:05.078Z,-5.98
2018-11-28T01:53:13.053Z,-5.95
2018-11-28T01:54:22.853Z,-5.97
2018-11-28T01:55:34.251Z,-5.92
2018-11-28T01:56:42.610Z,-5.92
2018-11-28T01:57:51.339Z,-5.96
2018-11-28T01:59:01.237Z,-5.97
2018-11-28T02:00:09.062Z,-5.94
2018-11-28T02:01:20.979Z,-5.92
2018-11-28T02:02:29.681Z,-5.91
2018-11-28T02:03:40.013Z,-5.91
2018-11-28T02:04:49.119Z,-5.93
2018-11-28T02:05:58.713Z,-5.95
2018-11-28T02:07:07.376Z,-5.95
2018-11-28T02:08:16.529Z,-5.93
2018-11-28T02:09:24.405Z,-5.96
2018-11-28T02:10:32.367Z,-6.00
2018-11-28T02:11:43.794Z,-6.00
2018-11-28T02:12:53.828Z,-6.02
2018-11-28T02:14:03.070Z,-5.97
2018-11-28T02:15:13.171Z,-6.03
2018-11-28T02:16:23.071Z,-6.03
2018-11-28T02:17:35.980Z,-6.23
2018-11-28T02:18:43.035Z,-6.32
2018-11-28T02:19:54.870Z,-6.23
2018-11-28T02:21:04.080Z,-6.18
2018-11-28T02:22:15.721Z,-6.16
2018-11-28T02:23:24.875Z,-6.13
2018-11-28T02:24:31.338Z,-6.13
2018-11-28T02:25:42.493Z,-6.15
2018-11-28T02:26:52.135Z,-6.16
2018-11-28T02:28:00.028Z,-6.08
2018-11-28T02:29:10.770Z,-6.04
2018-11-28T02:30:18.485Z,-6.04
2018-11-28T02:31:30.143Z,-6.01
2018-11-28T02:32:37.549Z,-6.13
2018-11-28T02:33:45.284Z,-6.29
2018-11-28T02:34:53.566Z,-6.26
2018-11-28T02:36:04.070Z,-6.18
2018-11-28T02:37:12.784Z,-6.16
2018-11-28T02:38:20.777Z,-6.14
2018-11-28T02:39:33.594Z,-6.14
2018-11-28T02:40:42.542Z,-6.14
2018-11-28T02:41:56.115Z,-6.13
2018-11-28T02:43:07.396Z,-6.16
2018-11-28T02:44:17.713Z,-6.13
2018-11-28T02:45:27.302Z,-6.16
2018-11-28T02:46:37.452Z,-6.17
2018-11-28T02:47:50.748Z,-6.18
2018-11-28T02:49:01.054Z,-6.20
2018-11-28T02:50:10.138Z,-6.17
2018-11-28T02:51:19.224Z,-6.13
2018-11-28T02:52:25.714Z,-6.13
2018-11-28T02:53:34.002Z,-6.16
2018-11-28T02:54:43.174Z,-6.12
2018-11-28T02:55:49.666Z,-6.14
2018-11-28T02:56:59.077Z,-6.07
2018-11-28T02:58:08.173Z,-6.11
2018-11-28T02:59:15.686Z,-6.12
2018-11-28T03:00:27.072Z,-6.13
2018-11-28T03:01:38.931Z,-6.21
2018-11-28T03:02:45.364Z,-6.20
2018-11-28T03:03:55.981Z,-6.15
2018-11-28T03:05:05.504Z,-6.20
2018-11-28T03:06:15.359Z,-6.35
2018-11-28T03:07:25.377Z,-6.49
2018-11-28T03:08:34.432Z,-6.44
2018-11-28T03:09:44.652Z,-6.39
2018-11-28T03:10:52.181Z,-6.38
2018-11-28T03:12:02.548Z,-6.37
2018-11-28T03:13:12.693Z,-6.39
2018-11-28T03:14:22.867Z,-6.38
2018-11-28T03:15:32.588Z,-6.39
2018-11-28T03:16:41.842Z,-6.37
2018-11-28T03:17:51.676Z,-6.29
2018-11-28T03:18:59.931Z,-6.28
2018-11-28T03:20:08.859Z,-6.23
2018-11-28T03:21:16.712Z,-6.22
2018-11-28T03:22:24.709Z,-6.24
2018-11-28T03:23:32.131Z,-6.20
2018-11-28T03:24:46.228Z,-6.16
2018-11-28T03:25:57.835Z,-6.17
2018-11-28T03:27:06.853Z,-6.26
2018-11-28T03:28:13.825Z,-6.46
2018-11-28T03:29:21.147Z,-6.49
2018-11-28T03:30:31.346Z,-6.52
2018-11-28T03:31:39.733Z,-6.49
2018-11-28T03:32:49.367Z,-6.42
2018-11-28T03:34:00.357Z,-6.45
2018-11-28T03:35:13.552Z,-6.53
2018-11-28T03:36:20.959Z,-6.55
2018-11-28T03:37:30.469Z,-6.55
2018-11-28T03:38:47.122Z,-6.53
2018-11-28T03:39:55.960Z,-6.48
2018-11-28T03:41:04.501Z,-6.62
2018-11-28T03:42:14.059Z,-6.60
2018-11-28T03:43:23.224Z,-6.55
2018-11-28T03:44:31.831Z,-6.56
2018-11-28T03:45:40.118Z,-6.56
2018-11-28T03:46:51.490Z,-6.42
2018-11-28T03:48:00.325Z,-6.36
2018-11-28T03:49:08.029Z,-6.43
2018-11-28T03:50:18.299Z,-6.41
2018-11-28T03:51:29.536Z,-6.29
2018-11-28T03:52:40.163Z,-6.25
2018-11-28T03:53:48.593Z,-6.21
2018-11-28T03:55:00.517Z,-6.12
2018-11-28T03:56:10.002Z,-6.00
2018-11-28T03:57:20.820Z,-5.95
2018-11-28T03:58:33.602Z,-5.84
2018-11-28T03:59:42.484Z,-5.86
2018-11-28T04:00:49.950Z,-5.83
2018-11-28T04:01:59.926Z,-5.79
2018-11-28T04:03:07.873Z,-5.87
2018-11-28T04:04:17.433Z,-5.93
2018-11-28T04:05:27.962Z,-6.02
2018-11-28T04:06:37.449Z,-6.12
2018-11-28T04:07:46.532Z,-6.02
2018-11-28T04:08:57.162Z,-5.74
2018-11-28T04:10:06.287Z,-5.71
2018-11-28T04:11:16.234Z,-5.74
2018-11-28T04:12:24.317Z,-5.70
2018-11-28T04:13:34.110Z,-5.42
2018-11-28T04:14:45.715Z,-5.16
2018-11-28T04:15:57.881Z,-5.39
2018-11-28T04:17:05.600Z,-5.27
2018-11-28T04:18:16.633Z,-5.07
2018-11-28T04:19:29.838Z,-5.14
2018-11-28T04:20:38.659Z,-5.21
2018-11-28T04:21:46.045Z,-5.23
2018-11-28T04:22:59.157Z,-5.23
2018-11-28T04:25:36.117Z,-5.10
2018-11-28T04:26:42.322Z,-5.09
2018-11-28T04:27:48.178Z,-5.10
2018-11-28T04:28:54.368Z,-5.15
2018-11-28T04:30:00.603Z,-5.16
2018-11-28T04:31:06.464Z,-4.98
2018-11-28T04:32:12.692Z,-4.66
2018-11-28T04:33:18.861Z,-4.65
2018-11-28T04:34:25.119Z,-4.72
2018-11-28T04:35:31.278Z,-4.77
2018-11-28T04:36:37.497Z,-4.81
2018-11-28T04:37:43.713Z,-4.82
2018-11-28T04:38:49.974Z,-4.75
2018-11-28T04:39:56.154Z,-4.77
2018-11-28T04:41:02.351Z,-4.81
2018-11-28T04:42:10.553Z,-4.86
2018-11-28T04:43:21.806Z,-4.90
2018-11-28T04:44:27.607Z,-4.83
2018-11-28T04:45:33.788Z,-4.61
2018-11-28T04:46:39.976Z,-4.20
2018-11-28T04:47:46.173Z,-4.29
2018-11-28T04:48:52.399Z,-4.25
2018-11-28T04:49:58.584Z,-4.09
2018-11-28T04:51:04.785Z,-4.25
2018-11-28T04:52:11.033Z,-4.52
2018-11-28T04:53:17.263Z,-4.61
2018-11-28T04:54:23.475Z,-4.56
2018-11-28T04:55:29.687Z,-4.26
2018-11-28T04:56:35.868Z,-4.36
2018-11-28T04:57:41.721Z,-4.42
2018-11-28T04:58:47.941Z,-4.43
2018-11-28T04:59:54.133Z,-4.45
2018-11-28T05:01:00.323Z,-4.47
2018-11-28T05:02:06.169Z,-4.19
2018-11-28T05:03:14.648Z,-4.11
2018-11-28T05:04:22.264Z,-4.24
2018-11-28T05:05:28.463Z,-4.17
2018-11-28T05:06:33.978Z,-4.20
2018-11-28T05:07:39.531Z,-4.22
2018-11-28T05:08:45.731Z,-4.16
2018-11-28T05:09:51.989Z,-4.16
2018-11-28T05:10:58.684Z,-4.28
2018-11-28T05:12:04.554Z,-4.32
2018-11-28T05:13:10.759Z,-4.29
2018-11-28T05:14:17.044Z,-4.14
2018-11-28T05:15:23.880Z,-4.22
2018-11-28T05:16:30.091Z,-4.12
2018-11-28T05:17:35.931Z,-4.02
2018-11-28T05:18:42.179Z,-4.04
2018-11-28T05:19:47.758Z,-4.04
2018-11-28T05:20:53.981Z,-3.96
2018-11-28T05:22:00.156Z,-4.12
2018-11-28T05:23:06.003Z,-4.19
2018-11-28T05:24:17.789Z,-4.17
2018-11-28T05:25:23.397Z,-4.14
2018-11-28T05:26:30.284Z,-4.19
2018-11-28T05:27:36.586Z,-4.16
2018-11-28T05:28:42.823Z,-4.08
2018-11-28T05:29:49.051Z,-4.03
2018-11-28T05:30:55.245Z,-4.01
2018-11-28T05:32:01.472Z,-3.94
2018-11-28T05:33:07.364Z,-3.80
2018-11-28T05:34:14.777Z,-3.64
2018-11-28T05:35:20.981Z,-3.50
2018-11-28T05:36:27.183Z,-3.41
2018-11-28T05:37:33.400Z,-3.24
2018-11-28T05:38:39.550Z,-3.17
2018-11-28T05:39:45.775Z,-3.29
2018-11-28T05:40:51.994Z,-3.41
2018-11-28T05:41:58.207Z,-3.58
2018-11-28T05:43:04.410Z,-3.68
2018-11-28T05:44:10.582Z,-3.70
2018-11-28T05:45:18.376Z,-3.67
2018-11-28T05:46:25.469Z,-3.70
2018-11-28T05:47:31.656Z,-3.68
2018-11-28T05:48:37.876Z,-3.64
2018-11-28T05:49:44.234Z,-3.58
2018-11-28T05:50:50.529Z,-3.55
2018-11-28T05:51:56.745Z,-3.52
2018-11-28T05:53:02.980Z,-3.50
2018-11-28T05:54:09.138Z,-3.50
2018-11-28T05:55:14.717Z,-3.37
2018-11-28T05:56:20.975Z,-3.38
2018-11-28T05:57:27.244Z,-3.38
2018-11-28T05:58:33.438Z,-3.39
2018-11-28T05:59:39.649Z,-3.36
2018-11-28T06:00:45.872Z,-3.33
2018-11-28T06:01:52.099Z,-3.31
2018-11-28T06:02:58.278Z,-3.28
2018-11-28T06:04:04.185Z,-3.26
2018-11-28T06:05:09.767Z,-3.22
2018-11-28T06:06:17.231Z,-3.22
2018-11-28T06:07:23.412Z,-3.24
2018-11-28T06:08:29.643Z,-3.20
2018-11-28T06:09:35.801Z,-3.21
2018-11-28T06:10:42.028Z,-2.96
2018-11-28T06:11:48.252Z,-2.97
2018-11-28T06:12:54.465Z,-3.09
2018-11-28T06:14:00.615Z,-3.13
2018-11-28T06:15:06.126Z,-3.08
2018-11-28T06:16:12.375Z,-3.04
2018-11-28T06:17:18.575Z,-2.82
2018-11-28T06:18:24.791Z,-2.58
2018-11-28T06:19:31.070Z,-2.42
2018-11-28T06:20:37.295Z,-2.38
2018-11-28T06:21:43.513Z,-2.45
2018-11-28T06:22:49.757Z,-2.57
2018-11-28T06:23:55.979Z,-2.81
2018-11-28T06:25:02.235Z,-2.92
2018-11-28T06:26:08.602Z,-2.89
2018-11-28T06:27:14.469Z,-2.86
2018-11-28T06:28:20.686Z,-2.78
2018-11-28T06:29:26.909Z,-2.85
2018-11-28T06:30:33.103Z,-2.90
2018-11-28T06:31:39.329Z,-2.88
2018-11-28T06:32:50.842Z,-2.99
2018-11-28T06:33:51.066Z,-3.08
2018-11-28T06:34:57.281Z,-3.05
2018-11-28T06:36:03.510Z,-3.01
2018-11-28T06:37:09.712Z,-3.01
2018-11-28T06:38:15.943Z,-3.02
2018-11-28T06:39:22.154Z,-3.00
2018-11-28T06:40:28.411Z,-2.97
2018-11-28T06:41:34.675Z,-2.93
2018-11-28T06:42:40.871Z,-2.92
2018-11-28T06:43:47.111Z,-2.90
2018-11-28T06:44:53.326Z,-2.86
2018-11-28T06:45:59.591Z,-2.90
2018-11-28T06:47:05.150Z,-2.95
2018-11-28T06:48:12.986Z,-2.75
2018-11-28T06:49:19.186Z,-2.72
2018-11-28T06:50:25.387Z,-2.68
2018-11-28T06:51:31.630Z,-2.77
2018-11-28T06:52:37.524Z,-2.80
2018-11-28T06:53:43.739Z,-2.74
2018-11-28T06:54:49.923Z,-2.71
2018-11-28T06:55:56.143Z,-2.61
2018-11-28T06:57:02.358Z,-2.59
2018-11-28T06:58:08.608Z,-2.58
2018-11-28T06:59:14.856Z,-2.60
2018-11-28T07:00:21.111Z,-2.46
2018-11-28T07:01:27.320Z,-2.49
2018-11-28T07:02:33.532Z,-2.53
2018-11-28T07:03:39.716Z,-2.40
2018-11-28T07:04:45.862Z,-2.27
2018-11-28T07:05:52.038Z,-2.04
2018-11-28T07:06:58.277Z,-2.11
2018-11-28T07:08:04.463Z,-2.19
2018-11-28T07:09:14.235Z,-2.29
2018-11-28T07:10:21.100Z,-2.32
2018-11-28T07:11:27.357Z,-2.26
2018-11-28T07:12:33.556Z,-2.18
2018-11-28T07:13:40.378Z,-2.22
2018-11-28T07:14:46.550Z,-2.36
2018-11-28T07:15:52.830Z,-2.40
2018-11-28T07:16:59.059Z,-2.48
2018-11-28T07:18:04.656Z,-2.45
2018-11-28T07:19:10.220Z,-2.41
2018-11-28T07:20:16.060Z,-2.41
2018-11-28T07:21:21.939Z,-2.32
2018-11-28T07:22:28.123Z,-2.25
2018-11-28T07:23:34.327Z,-2.15
2018-11-28T07:24:40.583Z,-1.82
2018-11-28T07:25:46.097Z,-1.62
2018-11-28T07:26:52.400Z,-1.62
2018-11-28T07:27:58.610Z,-2.05
2018-11-28T07:29:04.115Z,-2.29
2018-11-28T07:30:09.621Z,-2.35
2018-11-28T07:31:15.849Z,-2.30
2018-11-28T07:32:22.103Z,-2.32
2018-11-28T07:33:28.280Z,-2.29
2018-11-28T07:34:34.533Z,-2.22
2018-11-28T07:35:40.711Z,-2.12
2018-11-28T07:36:46.252Z,-2.10
2018-11-28T07:37:52.499Z,-2.08
2018-11-28T07:38:58.765Z,-2.06
2018-11-28T07:40:04.301Z,-2.03
2018-11-28T07:41:10.483Z,-2.00
2018-11-28T07:42:16.690Z,-1.99
2018-11-28T07:43:22.921Z,-1.96
2018-11-28T07:44:29.115Z,-1.98
2018-11-28T07:45:35.392Z,-1.94
2018-11-28T07:46:41.607Z,-1.91
2018-11-28T07:47:47.793Z,-1.87
2018-11-28T07:48:54.037Z,-1.85
2018-11-28T07:50:00.265Z,-1.67
2018-11-28T07:51:06.484Z,-1.81
2018-11-28T07:52:12.803Z,-1.87
2018-11-28T07:53:19.047Z,-1.86
2018-11-28T07:54:25.223Z,-1.86
2018-11-28T07:55:31.411Z,-1.84
2018-11-28T07:56:37.588Z,-1.79
2018-11-28T07:57:43.816Z,-1.76
2018-11-28T07:58:50.051Z,-1.69
2018-11-28T07:59:56.248Z,-1.74
2018-11-28T08:01:02.479Z,-1.75
2018-11-28T08:02:08.353Z,-1.77
2018-11-28T08:03:14.491Z,-1.76
2018-11-28T08:04:20.841Z,-1.75
2018-11-28T08:05:26.896Z,-1.72
2018-11-28T08:06:33.149Z,-1.70
2018-11-28T08:07:39.893Z,-1.67
2018-11-28T08:08:46.116Z,-1.68
2018-11-28T08:09:52.346Z,-1.67
2018-11-28T08:10:58.533Z,-1.66
2018-11-28T08:12:04.092Z,-1.65
2018-11-28T08:13:12.680Z,-1.63
2018-11-28T08:14:22.499Z,-1.60
2018-11-28T08:15:28.658Z,-1.53
2018-11-28T08:16:34.935Z,-1.55
2018-11-28T08:17:41.139Z,-1.49
2018-11-28T08:18:47.350Z,-1.49
2018-11-28T08:19:53.547Z,-1.53
2018-11-28T08:20:59.405Z,-1.53
2018-11-28T08:22:04.917Z,-1.51
2018-11-28T08:23:11.176Z,-1.43
2018-11-28T08:24:17.367Z,-1.34
2018-11-28T08:25:27.799Z,-1.32
2018-11-28T08:26:29.821Z,-1.38
2018-11-28T08:27:35.714Z,-1.42
2018-11-28T08:28:42.022Z,-1.44
2018-11-28T08:29:48.252Z,-1.38
2018-11-28T08:30:54.470Z,-1.31
2018-11-28T08:32:00.701Z,-1.31
2018-11-28T08:33:06.249Z,-1.20
2018-11-28T08:34:14.888Z,-1.20
2018-11-28T08:35:22.713Z,-1.24
2018-11-28T08:36:29.314Z,-1.21
2018-11-28T08:37:35.211Z,-1.18
2018-11-28T08:38:41.381Z,-1.21
2018-11-28T08:39:47.250Z,-1.20
2018-11-28T08:40:53.569Z,-1.12
2018-11-28T08:41:59.779Z,-1.03
2018-11-28T08:43:05.688Z,-0.88
2018-11-28T08:44:11.935Z,-0.96
2018-11-28T08:45:17.582Z,-0.94
2018-11-28T08:46:23.764Z,-0.97
2018-11-28T08:47:30.011Z,-1.01
2018-11-28T08:48:36.272Z,-1.01
2018-11-28T08:49:42.482Z,-0.98
2018-11-28T08:50:48.846Z,-0.96
2018-11-28T08:51:55.125Z,-0.92
2018-11-28T08:53:01.339Z,-0.90
2018-11-28T08:54:07.187Z,-0.85
2018-11-28T08:55:13.101Z,-0.86
2018-11-28T08:56:19.703Z,-0.82
2018-11-28T08:57:25.948Z,-0.81
2018-11-28T08:58:32.144Z,-0.78
2018-11-28T08:59:38.394Z,-0.80
2018-11-28T09:00:44.596Z,-0.77
2018-11-28T09:01:50.523Z,-0.76
2018-11-28T09:02:56.152Z,-0.73
2018-11-28T09:04:02.396Z,-0.71
2018-11-28T09:05:08.155Z,-0.68
2018-11-28T09:06:14.210Z,-0.62
2018-11-28T09:07:20.427Z,-0.54
2018-11-28T09:08:26.422Z,-0.50
2018-11-28T09:09:32.644Z,-0.53
2018-11-28T09:10:38.885Z,-0.45
2018-11-28T09:11:45.140Z,-0.48
2018-11-28T09:12:51.351Z,-0.49
2018-11-28T09:13:57.540Z,-0.51
2018-11-28T09:15:03.368Z,-0.51
2018-11-28T09:16:09.619Z,-0.43
2018-11-28T09:17:16.795Z,-0.41
2018-11-28T09:18:23.037Z,-0.41
2018-11-28T09:19:29.219Z,-0.43
2018-11-28T09:20:35.098Z,-0.42
2018-11-28T09:21:41.340Z,-0.39
2018-11-28T09:22:47.221Z,-0.33
2018-11-28T09:23:53.078Z,-0.32
2018-11-28T09:24:59.326Z,-0.27
2018-11-28T09:26:04.867Z,-0.30
2018-11-28T09:27:11.315Z,-0.20
2018-11-28T09:28:17.589Z,-0.21
2018-11-28T09:29:23.800Z,-0.12
2018-11-28T09:30:29.702Z,-0.13
2018-11-28T09:31:35.958Z,-0.10
2018-11-28T09:32:42.353Z,-0.14
2018-11-28T09:33:48.529Z,-0.04
2018-11-28T09:34:54.781Z,-0.02
2018-11-28T09:36:01.010Z,-0.03
2018-11-28T09:37:06.878Z,-0.08
2018-11-28T09:38:13.084Z,-0.07
2018-11-28T09:39:19.281Z,0.01
2018-11-28T09:40:25.150Z,0.00
2018-11-28T09:41:31.344Z,0.02
2018-11-28T09:42:37.568Z,0.04
2018-11-28T09:43:43.781Z,0.09
2018-11-28T09:44:49.962Z,0.19
2018-11-28T09:45:56.155Z,0.30
2018-11-28T09:47:02.350Z,0.33
2018-11-28T09:48:08.244Z,0.31
2018-11-28T09:49:14.500Z,0.25
2018-11-28T09:50:20.068Z,0.33
2018-11-28T09:51:26.316Z,0.38
2018-11-28T09:52:32.509Z,0.40
2018-11-28T09:53:38.704Z,0.37
2018-11-28T09:54:44.907Z,0.34
2018-11-28T09:55:51.142Z,0.42
2018-11-28T09:56:57.322Z,0.45
2018-11-28T09:58:03.826Z,0.52
2018-11-28T09:59:10.088Z,0.49
2018-11-28T10:00:15.614Z,0.51
2018-11-28T10:01:21.789Z,0.48
2018-11-28T10:02:27.967Z,0.56
2018-11-28T10:03:34.234Z,0.66
2018-11-28T10:04:40.446Z,0.61
2018-11-28T10:05:47.272Z,0.57
2018-11-28T10:06:52.881Z,0.61
2018-11-28T10:07:58.759Z,0.67
2018-11-28T10:09:04.088Z,0.68
2018-11-28T10:10:09.809Z,0.69
2018-11-28T10:11:15.527Z,0.75
2018-11-28T10:12:21.749Z,0.78
2018-11-28T10:13:27.691Z,0.93
2018-11-28T10:14:33.889Z,0.99
2018-11-28T10:15:39.710Z,1.05
2018-11-28T10:16:46.565Z,1.06
2018-11-28T10:17:51.415Z,1.14
2018-11-28T10:19:00.169Z,1.24
2018-11-28T10:20:06.697Z,1.37
2018-11-28T10:21:12.909Z,1.31
2018-11-28T10:22:19.081Z,1.38
2018-11-28T10:23:25.309Z,1.18
2018-11-28T10:24:31.524Z,1.13
2018-11-28T10:25:37.786Z,1.15
2018-11-28T10:26:43.993Z,1.21
2018-11-28T10:27:50.424Z,1.29
2018-11-28T10:28:56.685Z,1.30
2018-11-28T10:30:02.527Z,1.30
2018-11-28T10:31:08.750Z,1.29
2018-11-28T10:32:14.948Z,1.38
2018-11-28T10:33:21.134Z,1.41
2018-11-28T10:34:29.613Z,1.43
2018-11-28T10:35:33.594Z,1.59
2018-11-28T10:36:39.772Z,1.65
2018-11-28T10:37:46.012Z,1.73
2018-11-28T10:38:51.943Z,1.49
2018-11-28T10:39:58.098Z,1.34
2018-11-28T10:41:03.949Z,1.33
2018-11-28T10:42:10.177Z,1.46
2018-11-28T10:43:16.363Z,1.78
2018-11-28T10:44:22.224Z,1.62
2018-11-28T10:45:27.729Z,1.64
2018-11-28T10:46:33.618Z,1.78
2018-11-28T10:47:39.529Z,2.02
2018-11-28T10:48:45.776Z,1.87
2018-11-28T10:49:51.960Z,1.75
2018-11-28T10:50:57.882Z,1.73
2018-11-28T10:52:04.096Z,1.66
2018-11-28T10:53:09.732Z,1.49
2018-11-28T10:54:15.969Z,1.57
2018-11-28T10:55:21.844Z,1.64
2018-11-28T10:56:28.054Z,1.43
2018-11-28T10:57:34.258Z,1.30
2018-11-28T10:58:40.486Z,1.34
2018-11-28T10:59:46.323Z,1.42
2018-11-28T11:00:52.343Z,1.66
2018-11-28T11:02:00.316Z,1.51
2018-11-28T11:15:11.653Z,1.62
2018-11-28T11:16:21.154Z,1.73
2018-11-28T11:17:30.776Z,1.79
2018-11-28T11:18:41.720Z,1.74
2018-11-28T11:19:50.534Z,1.83
2018-11-28T11:21:04.814Z,1.88
2018-11-28T11:22:16.673Z,1.94
2018-11-28T11:23:29.679Z,1.77
2018-11-28T11:24:36.995Z,1.70
2018-11-28T11:25:47.151Z,1.64
2018-11-28T11:26:54.377Z,1.60
2018-11-28T11:28:01.856Z,1.66
2018-11-28T11:29:10.033Z,1.69
2018-11-28T11:30:17.038Z,1.84
2018-11-28T11:31:27.292Z,1.93
2018-11-28T11:32:37.768Z,1.94
2018-11-28T11:33:45.799Z,2.15
2018-11-28T11:34:51.997Z,2.06
2018-11-28T11:36:01.886Z,2.22
2018-11-28T11:37:08.781Z,2.20
2018-11-28T11:38:17.270Z,1.92
2018-11-28T11:39:25.739Z,1.79
2018-11-28T11:40:34.418Z,1.72
2018-11-28T11:41:43.178Z,1.77
2018-11-28T11:42:58.759Z,1.72
2018-11-28T11:44:09.611Z,1.77
2018-11-28T11:45:19.867Z,1.89
2018-11-28T11:46:28.765Z,2.04
2018-11-28T11:47:36.338Z,2.07
2018-11-28T11:48:43.729Z,2.06
2018-11-28T11:49:52.642Z,2.03
2018-11-28T11:51:02.127Z,2.06
2018-11-28T11:52:08.751Z,2.02
2018-11-28T11:53:15.343Z,2.08
2018-11-28T11:54:22.114Z,2.05
2018-11-28T11:55:30.761Z,2.14
2018-11-28T11:56:37.454Z,2.33
2018-11-28T11:57:50.555Z,2.21
2018-11-28T11:59:01.677Z,2.33
2018-11-28T12:00:12.025Z,2.32
2018-11-28T12:01:21.848Z,2.29
2018-11-28T12:02:29.460Z,2.20
2018-11-28T12:03:38.991Z,2.11
2018-11-28T12:04:46.685Z,2.05
2018-11-28T12:05:54.258Z,2.06
2018-11-28T12:07:04.498Z,2.10
2018-11-28T12:08:14.011Z,2.16
2018-11-28T12:09:24.360Z,2.23
2018-11-28T12:10:32.102Z,2.35
2018-11-28T12:11:42.951Z,2.30
2018-11-28T12:12:55.666Z,2.14
2018-11-28T12:14:05.956Z,2.01
2018-11-28T12:15:12.606Z,1.97
2018-11-28T12:16:21.664Z,2.04
2018-11-28T12:17:32.728Z,2.09
2018-11-28T12:18:41.605Z,2.15
2018-11-28T12:19:52.659Z,2.05
2018-11-28T12:21:01.491Z,2.02
2018-11-28T12:22:12.443Z,2.04
2018-11-28T12:23:18.301Z,2.13
2018-11-28T12:24:26.694Z,2.22
2018-11-28T12:25:34.120Z,2.14
2018-11-28T12:26:46.426Z,2.16
2018-11-28T12:27:53.943Z,2.19
2018-11-28T12:29:02.251Z,2.14
2018-11-28T12:30:10.761Z,2.14
2018-11-28T12:31:17.847Z,2.14
2018-11-28T12:32:27.406Z,2.14
2018-11-28T12:33:34.022Z,2.19
2018-11-28T12:34:43.594Z,2.19
2018-11-28T12:35:54.220Z,2.16
2018-11-28T12:37:02.619Z,2.24
2018-11-28T12:38:11.010Z,2.30
2018-11-28T12:40:28.294Z,2.40
2018-11-28T12:41:37.146Z,2.38
2018-11-28T12:42:44.424Z,2.53
2018-11-28T12:43:53.478Z,2.57
2018-11-28T12:45:02.270Z,2.46
2018-11-28T12:46:13.956Z,2.44
2018-11-28T12:47:26.873Z,2.60
2018-11-28T12:48:35.653Z,2.40
2018-11-28T12:49:41.997Z,2.55
2018-11-28T12:50:54.783Z,2.63
2018-11-28T12:52:11.362Z,2.70
2018-11-28T12:53:19.926Z,2.67
2018-11-28T12:54:27.786Z,2.67
2018-11-28T12:55:36.254Z,2.54
2018-11-28T12:56:44.075Z,2.50
2018-11-28T12:57:52.960Z,2.54
2018-11-28T12:59:03.111Z,2.59
2018-11-28T13:00:11.864Z,2.52
2018-11-28T13:01:21.004Z,2.39
2018-11-28T13:02:28.280Z,2.44
2018-11-28T13:03:38.011Z,2.43
2018-11-28T13:04:47.722Z,2.68
2018-11-28T13:05:57.284Z,2.70
2018-11-28T13:07:12.881Z,2.88
2018-11-28T13:08:24.252Z,2.68
2018-11-28T13:09:35.637Z,2.69
2018-11-28T13:10:45.869Z,2.72
2018-11-28T13:11:52.971Z,2.76
2018-11-28T13:13:04.135Z,2.82
2018-11-28T13:14:14.671Z,2.79
2018-11-28T13:15:23.925Z,2.70
2018-11-28T13:16:31.578Z,2.92
2018-11-28T13:17:43.051Z,3.00
2018-11-28T13:18:52.066Z,2.98
2018-11-28T13:20:04.003Z,2.78
2018-11-28T13:21:12.745Z,2.89
2018-11-28T13:22:26.671Z,2.88
2018-11-28T13:23:36.918Z,2.94
2018-11-28T13:24:44.222Z,2.89
2018-11-28T13:25:55.533Z,2.83
2018-11-28T13:27:02.846Z,2.85
2018-11-28T13:28:12.944Z,3.14
2018-11-28T13:29:22.762Z,3.09
2018-11-28T13:30:30.572Z,3.08
2018-11-28T13:31:40.174Z,2.98
2018-11-28T13:32:46.794Z,3.05
2018-11-28T13:33:55.466Z,3.26
2018-11-28T13:35:07.372Z,3.19
2018-11-28T13:36:15.338Z,3.25
2018-11-28T13:37:22.869Z,3.45
2018-11-28T13:38:32.309Z,3.39
2018-11-28T13:39:42.490Z,3.26
2018-11-28T13:40:50.305Z,3.24
2018-11-28T13:41:58.635Z,3.07
2018-11-28T13:43:06.589Z,2.91
2018-11-28T13:44:17.821Z,2.87
2018-11-28T13:45:29.527Z,2.83
2018-11-28T13:46:41.829Z,2.88
2018-11-28T13:47:51.408Z,2.79
2018-11-28T13:49:01.570Z,2.86
2018-11-28T13:50:10.050Z,2.86
2018-11-28T13:51:18.905Z,2.72
2018-11-28T13:52:27.093Z,2.63
2018-11-28T13:53:36.456Z,2.61
2018-11-28T13:55:37.600Z,2.48
2018-11-28T13:56:57.211Z,2.51
2018-11-28T13:57:08.714Z,2.44
2018-11-28T13:58:19.051Z,2.39
2018-11-28T13:59:28.994Z,2.45
2018-11-28T14:00:36.727Z,2.45
2018-11-28T14:01:48.366Z,2.35
2018-11-28T14:02:57.790Z,2.41
2018-11-28T14:04:09.905Z,2.50
2018-11-28T14:05:22.104Z,2.41
2018-11-28T14:06:37.436Z,2.25
2018-11-28T14:07:48.239Z,2.19
2018-11-28T14:08:58.425Z,2.27
2018-11-28T14:10:16.383Z,2.09
2018-11-28T14:11:25.973Z,2.10
2018-11-28T14:12:41.101Z,2.02
2018-11-28T14:13:51.471Z,2.09
2018-11-28T14:15:00.367Z,2.07
2018-11-28T14:16:09.027Z,1.93
2018-11-28T14:17:18.559Z,1.90
2018-11-28T14:18:33.413Z,1.78
2018-11-28T14:19:42.936Z,1.85
2018-11-28T14:20:51.656Z,1.78
2018-11-28T14:22:04.639Z,1.72
2018-11-28T14:23:13.192Z,1.71
2018-11-28T14:24:24.031Z,1.69
2018-11-28T14:25:32.668Z,1.75
2018-11-28T14:26:42.281Z,1.59
2018-11-28T14:27:50.950Z,1.54
2018-11-28T14:29:00.281Z,1.43
2018-11-28T14:30:07.582Z,1.49
2018-11-28T14:31:17.301Z,1.42
2018-11-28T14:32:27.910Z,1.41
2018-11-28T14:33:36.340Z,1.34
2018-11-28T14:34:46.265Z,1.37
2018-11-28T14:35:55.272Z,1.37
2018-11-28T14:37:05.015Z,1.40
2018-11-28T14:38:15.862Z,1.33
2018-11-28T14:39:26.358Z,1.35
2018-11-28T14:40:38.374Z,1.25
2018-11-28T14:41:46.573Z,1.20
2018-11-28T14:42:55.499Z,1.09
2018-11-28T14:44:04.243Z,1.20
2018-11-28T14:45:12.284Z,1.25
2018-11-28T14:46:22.062Z,1.14
2018-11-28T14:47:31.973Z,1.13
2018-11-28T14:48:45.312Z,1.02
2018-11-28T14:49:56.806Z,1.03
2018-11-28T14:51:07.346Z,1.02
2018-11-28T14:52:20.812Z,0.94
2018-11-28T14:53:29.654Z,1.05
2018-11-28T14:54:37.935Z,1.16
2018-11-28T14:55:47.492Z,1.07
2018-11-28T14:56:55.687Z,1.02
2018-11-28T14:58:02.557Z,0.93
2018-11-28T14:59:11.136Z,1.01
2018-11-28T15:00:21.416Z,0.88
2018-11-28T15:01:31.748Z,0.78